sensor_id;sensor_type;location;lat;lon;timestamp;P1;durP1;ratioP1;P2;durP2;ratioP2
32790;SDS011;19143;59.322;14.502;2023-06-26T00:00:27;4.73;;;4.07;;
32790;SDS011;19143;59.322;14.502;2023-06-26T00:02:54;5.10;;;4.60;;
32790;SDS011;19143;59.322;14.502;2023-06-26T00:05:21;4.93;;;4.43;;
32790;SDS011;19143;59.322;14.502;2023-06-26T00:07:47;4.77;;;4.37;;
32790;SDS011;19143;59.322;14.502;2023-06-26T00:10:14;5.83;;;4.53;;
32790;SDS011;19143;59.322;14.502;2023-06-26T00:12:41;6.30;;;4.40;;
32790;SDS011;19143;59.322;14.502;2023-06-26T00:15:09;4.60;;;4.27;;
32790;SDS011;19143;59.322;14.502;2023-06-26T00:17:37;4.97;;;4.50;;
32790;SDS011;19143;59.322;14.502;2023-06-26T00:20:03;5.50;;;5.00;;
32790;SDS011;19143;59.322;14.502;2023-06-26T00:22:30;9.73;;;5.10;;
32790;SDS011;19143;59.322;14.502;2023-06-26T00:24:57;6.03;;;5.10;;
32790;SDS011;19143;59.322;14.502;2023-06-26T00:27:23;5.90;;;5.30;;
32790;SDS011;19143;59.322;14.502;2023-06-26T00:29:50;6.20;;;5.60;;
32790;SDS011;19143;59.322;14.502;2023-06-26T00:32:19;8.20;;;5.97;;
32790;SDS011;19143;59.322;14.502;2023-06-26T00:34:46;6.23;;;5.63;;
32790;SDS011;19143;59.322;14.502;2023-06-26T00:37:12;6.23;;;5.63;;
32790;SDS011;19143;59.322;14.502;2023-06-26T00:39:39;6.43;;;5.80;;
32790;SDS011;19143;59.322;14.502;2023-06-26T00:42:06;9.47;;;6.10;;
32790;SDS011;19143;59.322;14.502;2023-06-26T00:44:33;9.47;;;6.73;;
32790;SDS011;19143;59.322;14.502;2023-06-26T00:46:59;7.00;;;6.20;;
32790;SDS011;19143;59.322;14.502;2023-06-26T00:49:28;7.23;;;6.13;;
32790;SDS011;19143;59.322;14.502;2023-06-26T00:51:55;6.10;;;5.20;;
32790;SDS011;19143;59.322;14.502;2023-06-26T00:54:21;8.27;;;5.30;;
32790;SDS011;19143;59.322;14.502;2023-06-26T00:56:48;10.30;;;5.23;;
32790;SDS011;19143;59.322;14.502;2023-06-26T00:59:15;5.33;;;4.87;;
32790;SDS011;19143;59.322;14.502;2023-06-26T01:01:42;6.53;;;4.77;;
32790;SDS011;19143;59.322;14.502;2023-06-26T01:04:08;6.03;;;5.00;;
32790;SDS011;19143;59.322;14.502;2023-06-26T01:06:44;5.03;;;4.53;;
32790;SDS011;19143;59.322;14.502;2023-06-26T01:09:14;11.03;;;5.20;;
32790;SDS011;19143;59.322;14.502;2023-06-26T01:11:40;4.80;;;4.20;;
32790;SDS011;19143;59.322;14.502;2023-06-26T01:14:07;4.83;;;4.43;;
32790;SDS011;19143;59.322;14.502;2023-06-26T01:16:33;5.77;;;4.37;;
32790;SDS011;19143;59.322;14.502;2023-06-26T01:19:01;4.73;;;4.30;;
32790;SDS011;19143;59.322;14.502;2023-06-26T01:21:28;4.57;;;4.17;;
32790;SDS011;19143;59.322;14.502;2023-06-26T01:24:01;5.67;;;4.50;;
32790;SDS011;19143;59.322;14.502;2023-06-26T01:26:32;7.27;;;5.00;;
32790;SDS011;19143;59.322;14.502;2023-06-26T01:29:00;5.70;;;4.57;;
32790;SDS011;19143;59.322;14.502;2023-06-26T01:31:27;5.93;;;4.13;;
32790;SDS011;19143;59.322;14.502;2023-06-26T01:33:55;4.77;;;4.27;;
32790;SDS011;19143;59.322;14.502;2023-06-26T01:36:22;5.40;;;4.90;;
32790;SDS011;19143;59.322;14.502;2023-06-26T01:38:49;5.23;;;4.43;;
32790;SDS011;19143;59.322;14.502;2023-06-26T01:41:17;5.17;;;4.67;;
32790;SDS011;19143;59.322;14.502;2023-06-26T01:43:50;7.13;;;4.90;;
32790;SDS011;19143;59.322;14.502;2023-06-26T01:46:21;5.67;;;4.43;;
32790;SDS011;19143;59.322;14.502;2023-06-26T01:48:49;5.33;;;4.93;;
32790;SDS011;19143;59.322;14.502;2023-06-26T01:51:19;4.93;;;4.50;;
32790;SDS011;19143;59.322;14.502;2023-06-26T01:53:50;5.83;;;4.87;;
32790;SDS011;19143;59.322;14.502;2023-06-26T01:56:18;6.07;;;5.03;;
32790;SDS011;19143;59.322;14.502;2023-06-26T01:58:45;4.90;;;4.50;;
32790;SDS011;19143;59.322;14.502;2023-06-26T02:01:14;6.37;;;5.20;;
32790;SDS011;19143;59.322;14.502;2023-06-26T02:03:40;5.47;;;4.97;;
32790;SDS011;19143;59.322;14.502;2023-06-26T02:06:07;7.03;;;4.83;;
32790;SDS011;19143;59.322;14.502;2023-06-26T02:08:33;5.50;;;4.70;;
32790;SDS011;19143;59.322;14.502;2023-06-26T02:11:00;6.97;;;4.70;;
32790;SDS011;19143;59.322;14.502;2023-06-26T02:13:26;5.70;;;4.90;;
32790;SDS011;19143;59.322;14.502;2023-06-26T02:15:53;5.33;;;4.77;;
32790;SDS011;19143;59.322;14.502;2023-06-26T02:18:21;5.90;;;5.33;;
32790;SDS011;19143;59.322;14.502;2023-06-26T02:20:49;5.33;;;4.83;;
32790;SDS011;19143;59.322;14.502;2023-06-26T02:23:16;5.60;;;4.73;;
32790;SDS011;19143;59.322;14.502;2023-06-26T02:25:43;5.17;;;4.77;;
32790;SDS011;19143;59.322;14.502;2023-06-26T02:28:09;5.50;;;5.00;;
32790;SDS011;19143;59.322;14.502;2023-06-26T02:30:36;12.57;;;4.90;;
32790;SDS011;19143;59.322;14.502;2023-06-26T02:33:03;6.33;;;5.37;;
32790;SDS011;19143;59.322;14.502;2023-06-26T02:35:31;5.63;;;4.93;;
32790;SDS011;19143;59.322;14.502;2023-06-26T02:37:58;5.43;;;4.57;;
32790;SDS011;19143;59.322;14.502;2023-06-26T02:40:25;11.30;;;5.07;;
32790;SDS011;19143;59.322;14.502;2023-06-26T02:42:52;6.83;;;5.33;;
32790;SDS011;19143;59.322;14.502;2023-06-26T02:45:18;4.90;;;4.50;;
32790;SDS011;19143;59.322;14.502;2023-06-26T02:47:45;6.73;;;5.27;;
32790;SDS011;19143;59.322;14.502;2023-06-26T02:50:11;9.10;;;5.60;;
32790;SDS011;19143;59.322;14.502;2023-06-26T02:52:40;10.30;;;5.37;;
32790;SDS011;19143;59.322;14.502;2023-06-26T02:55:07;6.33;;;5.30;;
32790;SDS011;19143;59.322;14.502;2023-06-26T02:57:33;5.83;;;5.23;;
32790;SDS011;19143;59.322;14.502;2023-06-26T03:00:00;5.93;;;5.30;;
32790;SDS011;19143;59.322;14.502;2023-06-26T03:02:26;6.10;;;5.50;;
32790;SDS011;19143;59.322;14.502;2023-06-26T03:04:53;6.90;;;5.40;;
32790;SDS011;19143;59.322;14.502;2023-06-26T03:07:19;6.27;;;5.67;;
32790;SDS011;19143;59.322;14.502;2023-06-26T03:09:47;6.30;;;5.50;;
32790;SDS011;19143;59.322;14.502;2023-06-26T03:12:14;6.23;;;5.63;;
32790;SDS011;19143;59.322;14.502;2023-06-26T03:14:40;7.63;;;5.97;;
32790;SDS011;19143;59.322;14.502;2023-06-26T03:17:07;10.10;;;6.23;;
32790;SDS011;19143;59.322;14.502;2023-06-26T03:19:34;12.63;;;5.90;;
32790;SDS011;19143;59.322;14.502;2023-06-26T03:22:00;8.67;;;5.97;;
32790;SDS011;19143;59.322;14.502;2023-06-26T03:24:27;6.30;;;5.70;;
32790;SDS011;19143;59.322;14.502;2023-06-26T03:27:01;10.07;;;5.27;;
32790;SDS011;19143;59.322;14.502;2023-06-26T03:29:28;6.43;;;5.53;;
32790;SDS011;19143;59.322;14.502;2023-06-26T03:31:55;6.90;;;5.60;;
32790;SDS011;19143;59.322;14.502;2023-06-26T03:34:21;5.97;;;5.37;;
32790;SDS011;19143;59.322;14.502;2023-06-26T03:36:48;8.07;;;5.53;;
32790;SDS011;19143;59.322;14.502;2023-06-26T03:39:14;7.73;;;5.80;;
32790;SDS011;19143;59.322;14.502;2023-06-26T03:41:41;5.63;;;5.13;;
32790;SDS011;19143;59.322;14.502;2023-06-26T03:44:09;8.43;;;6.03;;
32790;SDS011;19143;59.322;14.502;2023-06-26T03:46:36;6.67;;;5.30;;
32790;SDS011;19143;59.322;14.502;2023-06-26T03:49:03;9.67;;;5.60;;
32790;SDS011;19143;59.322;14.502;2023-06-26T03:51:29;9.10;;;5.57;;
32790;SDS011;19143;59.322;14.502;2023-06-26T03:53:56;7.10;;;5.07;;
32790;SDS011;19143;59.322;14.502;2023-06-26T03:56:23;5.83;;;4.57;;
32790;SDS011;19143;59.322;14.502;2023-06-26T03:58:49;9.70;;;5.27;;
32790;SDS011;19143;59.322;14.502;2023-06-26T04:01:17;7.70;;;5.17;;
32790;SDS011;19143;59.322;14.502;2023-06-26T04:03:45;7.83;;;5.50;;
32790;SDS011;19143;59.322;14.502;2023-06-26T04:06:11;6.77;;;5.27;;
32790;SDS011;19143;59.322;14.502;2023-06-26T04:08:38;6.30;;;4.70;;
32790;SDS011;19143;59.322;14.502;2023-06-26T04:11:04;5.87;;;5.27;;
32790;SDS011;19143;59.322;14.502;2023-06-26T04:13:31;5.90;;;5.40;;
32790;SDS011;19143;59.322;14.502;2023-06-26T04:15:58;5.30;;;4.77;;
32790;SDS011;19143;59.322;14.502;2023-06-26T04:18:26;6.30;;;5.00;;
32790;SDS011;19143;59.322;14.502;2023-06-26T04:21:05;6.00;;;5.43;;
32790;SDS011;19143;59.322;14.502;2023-06-26T04:23:33;4.90;;;4.50;;
32790;SDS011;19143;59.322;14.502;2023-06-26T04:25:59;5.53;;;5.03;;
32790;SDS011;19143;59.322;14.502;2023-06-26T04:28:27;5.40;;;4.90;;
32790;SDS011;19143;59.322;14.502;2023-06-26T04:30:54;6.17;;;4.87;;
32790;SDS011;19143;59.322;14.502;2023-06-26T04:33:21;5.70;;;5.13;;
32790;SDS011;19143;59.322;14.502;2023-06-26T04:35:49;4.90;;;4.53;;
32790;SDS011;19143;59.322;14.502;2023-06-26T04:38:16;5.73;;;4.87;;
32790;SDS011;19143;59.322;14.502;2023-06-26T04:40:43;5.23;;;4.73;;
32790;SDS011;19143;59.322;14.502;2023-06-26T04:43:09;5.23;;;4.83;;
32790;SDS011;19143;59.322;14.502;2023-06-26T04:45:36;5.00;;;4.50;;
32790;SDS011;19143;59.322;14.502;2023-06-26T04:48:03;5.00;;;4.60;;
32790;SDS011;19143;59.322;14.502;2023-06-26T04:50:31;6.10;;;4.50;;
32790;SDS011;19143;59.322;14.502;2023-06-26T04:53:00;6.83;;;4.60;;
32790;SDS011;19143;59.322;14.502;2023-06-26T04:55:26;6.53;;;5.10;;
32790;SDS011;19143;59.322;14.502;2023-06-26T04:57:53;4.90;;;4.57;;
32790;SDS011;19143;59.322;14.502;2023-06-26T05:00:20;5.20;;;4.70;;
32790;SDS011;19143;59.322;14.502;2023-06-26T05:02:47;7.20;;;4.80;;
32790;SDS011;19143;59.322;14.502;2023-06-26T05:05:14;4.73;;;4.43;;
32790;SDS011;19143;59.322;14.502;2023-06-26T05:07:41;11.73;;;4.67;;
32790;SDS011;19143;59.322;14.502;2023-06-26T05:10:09;6.43;;;4.77;;
32790;SDS011;19143;59.322;14.502;2023-06-26T05:12:36;7.87;;;4.20;;
32790;SDS011;19143;59.322;14.502;2023-06-26T05:15:03;5.00;;;4.53;;
32790;SDS011;19143;59.322;14.502;2023-06-26T05:17:30;4.90;;;4.53;;
32790;SDS011;19143;59.322;14.502;2023-06-26T05:19:56;5.80;;;4.23;;
32790;SDS011;19143;59.322;14.502;2023-06-26T05:22:23;5.03;;;4.63;;
32790;SDS011;19143;59.322;14.502;2023-06-26T05:24:50;4.97;;;4.50;;
32790;SDS011;19143;59.322;14.502;2023-06-26T05:27:22;4.83;;;4.43;;
32790;SDS011;19143;59.322;14.502;2023-06-26T05:29:49;7.40;;;4.30;;
32790;SDS011;19143;59.322;14.502;2023-06-26T05:32:16;4.90;;;4.50;;
32790;SDS011;19143;59.322;14.502;2023-06-26T05:34:44;4.90;;;4.30;;
32790;SDS011;19143;59.322;14.502;2023-06-26T05:37:11;4.60;;;4.30;;
32790;SDS011;19143;59.322;14.502;2023-06-26T05:39:39;5.73;;;4.97;;
32790;SDS011;19143;59.322;14.502;2023-06-26T05:42:06;5.83;;;4.53;;
32790;SDS011;19143;59.322;14.502;2023-06-26T05:44:36;6.27;;;4.50;;
32790;SDS011;19143;59.322;14.502;2023-06-26T05:47:02;4.67;;;4.37;;
32790;SDS011;19143;59.322;14.502;2023-06-26T05:49:29;4.70;;;4.30;;
32790;SDS011;19143;59.322;14.502;2023-06-26T05:51:56;4.67;;;4.27;;
32790;SDS011;19143;59.322;14.502;2023-06-26T05:54:23;4.20;;;3.90;;
32790;SDS011;19143;59.322;14.502;2023-06-26T05:56:50;4.90;;;4.50;;
32790;SDS011;19143;59.322;14.502;2023-06-26T05:59:17;6.70;;;4.33;;
32790;SDS011;19143;59.322;14.502;2023-06-26T06:01:46;4.40;;;4.10;;
32790;SDS011;19143;59.322;14.502;2023-06-26T06:04:13;4.70;;;4.40;;
32790;SDS011;19143;59.322;14.502;2023-06-26T06:06:39;5.73;;;4.30;;
32790;SDS011;19143;59.322;14.502;2023-06-26T06:09:06;4.67;;;4.33;;
32790;SDS011;19143;59.322;14.502;2023-06-26T06:11:33;6.07;;;4.17;;
32790;SDS011;19143;59.322;14.502;2023-06-26T06:13:59;4.23;;;4.00;;
32790;SDS011;19143;59.322;14.502;2023-06-26T06:16:26;5.00;;;4.60;;
32790;SDS011;19143;59.322;14.502;2023-06-26T06:18:55;6.10;;;4.60;;
32790;SDS011;19143;59.322;14.502;2023-06-26T06:21:22;4.20;;;4.00;;
32790;SDS011;19143;59.322;14.502;2023-06-26T06:23:49;4.93;;;4.43;;
32790;SDS011;19143;59.322;14.502;2023-06-26T06:26:15;8.00;;;4.30;;
32790;SDS011;19143;59.322;14.502;2023-06-26T06:28:49;5.00;;;4.60;;
32790;SDS011;19143;59.322;14.502;2023-06-26T06:31:25;4.30;;;4.00;;
32790;SDS011;19143;59.322;14.502;2023-06-26T06:33:53;5.33;;;4.10;;
32790;SDS011;19143;59.322;14.502;2023-06-26T06:36:21;4.47;;;4.20;;
32790;SDS011;19143;59.322;14.502;2023-06-26T06:38:47;4.67;;;4.37;;
32790;SDS011;19143;59.322;14.502;2023-06-26T06:41:14;4.83;;;3.90;;
32790;SDS011;19143;59.322;14.502;2023-06-26T06:43:41;4.30;;;3.97;;
32790;SDS011;19143;59.322;14.502;2023-06-26T06:46:08;4.73;;;4.20;;
32790;SDS011;19143;59.322;14.502;2023-06-26T06:48:35;4.50;;;4.10;;
32790;SDS011;19143;59.322;14.502;2023-06-26T06:51:02;4.47;;;4.17;;
32790;SDS011;19143;59.322;14.502;2023-06-26T06:53:30;4.50;;;4.10;;
32790;SDS011;19143;59.322;14.502;2023-06-26T06:55:57;4.47;;;4.07;;
32790;SDS011;19143;59.322;14.502;2023-06-26T06:58:24;4.20;;;4.00;;
32790;SDS011;19143;59.322;14.502;2023-06-26T07:00:51;4.20;;;4.00;;
32790;SDS011;19143;59.322;14.502;2023-06-26T07:03:18;4.10;;;3.90;;
32790;SDS011;19143;59.322;14.502;2023-06-26T07:05:46;4.20;;;3.97;;
32790;SDS011;19143;59.322;14.502;2023-06-26T07:08:12;6.17;;;4.23;;
32790;SDS011;19143;59.322;14.502;2023-06-26T07:10:41;5.03;;;4.27;;
32790;SDS011;19143;59.322;14.502;2023-06-26T07:13:07;4.50;;;4.20;;
32790;SDS011;19143;59.322;14.502;2023-06-26T07:15:34;4.63;;;4.23;;
32790;SDS011;19143;59.322;14.502;2023-06-26T07:18:01;4.60;;;4.10;;
32790;SDS011;19143;59.322;14.502;2023-06-26T07:20:28;4.90;;;4.50;;
32790;SDS011;19143;59.322;14.502;2023-06-26T07:22:54;5.23;;;4.80;;
32790;SDS011;19143;59.322;14.502;2023-06-26T07:25:21;4.37;;;3.97;;
32790;SDS011;19143;59.322;14.502;2023-06-26T07:27:49;4.60;;;4.30;;
32790;SDS011;19143;59.322;14.502;2023-06-26T07:30:16;4.75;;;4.28;;
32790;SDS011;19143;59.322;14.502;2023-06-26T07:32:44;6.13;;;4.38;;
32790;SDS011;19143;59.322;14.502;2023-06-26T07:35:11;5.05;;;4.57;;
32790;SDS011;19143;59.322;14.502;2023-06-26T07:37:38;4.63;;;4.30;;
32790;SDS011;19143;59.322;14.502;2023-06-26T07:40:06;4.65;;;4.25;;
32790;SDS011;19143;59.322;14.502;2023-06-26T07:42:33;6.10;;;4.10;;
32790;SDS011;19143;59.322;14.502;2023-06-26T07:45:01;4.47;;;4.17;;
32790;SDS011;19143;59.322;14.502;2023-06-26T07:47:34;5.90;;;4.13;;
32790;SDS011;19143;59.322;14.502;2023-06-26T07:50:01;4.23;;;3.93;;
32790;SDS011;19143;59.322;14.502;2023-06-26T07:52:28;5.38;;;4.32;;
32790;SDS011;19143;59.322;14.502;2023-06-26T07:54:55;4.28;;;3.78;;
32790;SDS011;19143;59.322;14.502;2023-06-26T07:57:22;7.65;;;4.07;;
32790;SDS011;19143;59.322;14.502;2023-06-26T07:59:49;5.20;;;3.80;;
32790;SDS011;19143;59.322;14.502;2023-06-26T08:02:28;5.43;;;3.40;;
32790;SDS011;19143;59.322;14.502;2023-06-26T08:04:59;6.75;;;4.07;;
32790;SDS011;19143;59.322;14.502;2023-06-26T08:07:25;3.70;;;3.50;;
32790;SDS011;19143;59.322;14.502;2023-06-26T08:09:52;4.15;;;3.85;;
32790;SDS011;19143;59.322;14.502;2023-06-26T08:12:19;6.80;;;3.72;;
32790;SDS011;19143;59.322;14.502;2023-06-26T08:14:45;4.10;;;3.80;;
32790;SDS011;19143;59.322;14.502;2023-06-26T08:17:12;4.20;;;3.90;;
32790;SDS011;19143;59.322;14.502;2023-06-26T08:19:40;4.13;;;3.75;;
32790;SDS011;19143;59.322;14.502;2023-06-26T08:22:06;5.30;;;3.58;;
32790;SDS011;19143;59.322;14.502;2023-06-26T08:24:33;3.63;;;3.40;;
32790;SDS011;19143;59.322;14.502;2023-06-26T08:27:02;3.75;;;3.42;;
32790;SDS011;19143;59.322;14.502;2023-06-26T08:29:28;3.90;;;3.38;;
32790;SDS011;19143;59.322;14.502;2023-06-26T08:31:55;4.10;;;3.80;;
32790;SDS011;19143;59.322;14.502;2023-06-26T08:34:22;5.13;;;3.63;;
32790;SDS011;19143;59.322;14.502;2023-06-26T08:36:50;3.97;;;3.70;;
32790;SDS011;19143;59.322;14.502;2023-06-26T08:39:16;3.42;;;3.22;;
32790;SDS011;19143;59.322;14.502;2023-06-26T08:41:44;4.47;;;3.97;;
32790;SDS011;19143;59.322;14.502;2023-06-26T08:44:11;4.18;;;3.78;;
32790;SDS011;19143;59.322;14.502;2023-06-26T08:46:38;3.80;;;3.60;;
32790;SDS011;19143;59.322;14.502;2023-06-26T08:49:08;4.90;;;3.70;;
32790;SDS011;19143;59.322;14.502;2023-06-26T08:51:38;4.83;;;3.87;;
32790;SDS011;19143;59.322;14.502;2023-06-26T08:54:07;3.80;;;3.60;;
32790;SDS011;19143;59.322;14.502;2023-06-26T08:56:35;3.50;;;3.33;;
32790;SDS011;19143;59.322;14.502;2023-06-26T08:59:03;3.90;;;3.60;;
32790;SDS011;19143;59.322;14.502;2023-06-26T09:01:30;3.67;;;3.37;;
32790;SDS011;19143;59.322;14.502;2023-06-26T09:03:57;4.27;;;3.70;;
32790;SDS011;19143;59.322;14.502;2023-06-26T09:06:24;3.75;;;3.35;;
32790;SDS011;19143;59.322;14.502;2023-06-26T09:08:50;3.63;;;3.43;;
32790;SDS011;19143;59.322;14.502;2023-06-26T09:11:18;3.53;;;3.22;;
32790;SDS011;19143;59.322;14.502;2023-06-26T09:13:45;3.43;;;3.23;;
32790;SDS011;19143;59.322;14.502;2023-06-26T09:16:12;4.03;;;3.63;;
32790;SDS011;19143;59.322;14.502;2023-06-26T09:18:40;3.50;;;3.30;;
32790;SDS011;19143;59.322;14.502;2023-06-26T09:21:07;3.95;;;3.63;;
32790;SDS011;19143;59.322;14.502;2023-06-26T09:23:34;4.15;;;3.85;;
32790;SDS011;19143;59.322;14.502;2023-06-26T09:26:02;3.80;;;3.55;;
32790;SDS011;19143;59.322;14.502;2023-06-26T09:28:34;3.55;;;3.20;;
32790;SDS011;19143;59.322;14.502;2023-06-26T09:31:01;3.25;;;3.00;;
32790;SDS011;19143;59.322;14.502;2023-06-26T09:33:32;3.33;;;3.05;;
32790;SDS011;19143;59.322;14.502;2023-06-26T09:35:59;18.75;;;3.90;;
32790;SDS011;19143;59.322;14.502;2023-06-26T09:38:28;13.68;;;3.85;;
32790;SDS011;19143;59.322;14.502;2023-06-26T09:40:55;16.27;;;4.07;;
32790;SDS011;19143;59.322;14.502;2023-06-26T09:43:22;11.90;;;4.07;;
32790;SDS011;19143;59.322;14.502;2023-06-26T09:45:51;3.20;;;3.10;;
32790;SDS011;19143;59.322;14.502;2023-06-26T09:48:19;4.65;;;3.22;;
32790;SDS011;19143;59.322;14.502;2023-06-26T09:50:45;28.30;;;3.90;;
32790;SDS011;19143;59.322;14.502;2023-06-26T09:53:15;3.03;;;2.92;;
32790;SDS011;19143;59.322;14.502;2023-06-26T09:55:43;3.00;;;2.80;;
32790;SDS011;19143;59.322;14.502;2023-06-26T09:58:10;5.97;;;3.15;;
32790;SDS011;19143;59.322;14.502;2023-06-26T10:00:40;6.10;;;2.70;;
32790;SDS011;19143;59.322;14.502;2023-06-26T10:03:08;9.32;;;3.40;;
32790;SDS011;19143;59.322;14.502;2023-06-26T10:05:34;5.85;;;2.97;;
32790;SDS011;19143;59.322;14.502;2023-06-26T10:08:01;3.30;;;3.10;;
32790;SDS011;19143;59.322;14.502;2023-06-26T10:10:29;3.60;;;3.38;;
32790;SDS011;19143;59.322;14.502;2023-06-26T10:13:06;3.65;;;2.95;;
32790;SDS011;19143;59.322;14.502;2023-06-26T10:15:34;3.38;;;3.13;;
32790;SDS011;19143;59.322;14.502;2023-06-26T10:18:02;3.17;;;3.00;;
32790;SDS011;19143;59.322;14.502;2023-06-26T10:20:30;10.93;;;3.30;;
32790;SDS011;19143;59.322;14.502;2023-06-26T10:22:57;4.33;;;3.00;;
32790;SDS011;19143;59.322;14.502;2023-06-26T10:25:27;5.88;;;3.15;;
32790;SDS011;19143;59.322;14.502;2023-06-26T10:27:55;3.10;;;3.00;;
32790;SDS011;19143;59.322;14.502;2023-06-26T10:30:25;3.60;;;3.20;;
32790;SDS011;19143;59.322;14.502;2023-06-26T10:32:53;3.28;;;3.08;;
32790;SDS011;19143;59.322;14.502;2023-06-26T10:35:20;8.23;;;2.95;;
32790;SDS011;19143;59.322;14.502;2023-06-26T10:37:49;3.25;;;3.05;;
32790;SDS011;19143;59.322;14.502;2023-06-26T10:40:21;4.03;;;3.15;;
32790;SDS011;19143;59.322;14.502;2023-06-26T10:42:48;5.70;;;3.47;;
32790;SDS011;19143;59.322;14.502;2023-06-26T10:45:15;3.53;;;3.27;;
32790;SDS011;19143;59.322;14.502;2023-06-26T10:47:43;3.40;;;3.10;;
32790;SDS011;19143;59.322;14.502;2023-06-26T10:50:18;3.43;;;3.23;;
32790;SDS011;19143;59.322;14.502;2023-06-26T10:52:45;3.20;;;3.10;;
32790;SDS011;19143;59.322;14.502;2023-06-26T10:55:14;3.22;;;3.03;;
32790;SDS011;19143;59.322;14.502;2023-06-26T10:57:44;6.43;;;3.15;;
32790;SDS011;19143;59.322;14.502;2023-06-26T11:00:14;3.70;;;3.50;;
32790;SDS011;19143;59.322;14.502;2023-06-26T11:02:47;3.38;;;3.08;;
32790;SDS011;19143;59.322;14.502;2023-06-26T11:05:22;3.05;;;2.95;;
32790;SDS011;19143;59.322;14.502;2023-06-26T11:08:05;3.28;;;3.08;;
32790;SDS011;19143;59.322;14.502;2023-06-26T11:10:49;3.10;;;2.95;;
32790;SDS011;19143;59.322;14.502;2023-06-26T11:13:16;3.35;;;3.13;;
32790;SDS011;19143;59.322;14.502;2023-06-26T11:15:43;3.10;;;2.88;;
32790;SDS011;19143;59.322;14.502;2023-06-26T11:18:10;2.95;;;2.75;;
32790;SDS011;19143;59.322;14.502;2023-06-26T11:20:37;3.08;;;2.97;;
32790;SDS011;19143;59.322;14.502;2023-06-26T11:23:03;3.20;;;3.10;;
32790;SDS011;19143;59.322;14.502;2023-06-26T11:25:33;3.22;;;3.03;;
32790;SDS011;19143;59.322;14.502;2023-06-26T11:28:02;3.20;;;3.00;;
32790;SDS011;19143;59.322;14.502;2023-06-26T11:30:28;3.25;;;2.97;;
32790;SDS011;19143;59.322;14.502;2023-06-26T11:33:02;3.55;;;3.13;;
32790;SDS011;19143;59.322;14.502;2023-06-26T11:35:28;3.28;;;3.08;;
32790;SDS011;19143;59.322;14.502;2023-06-26T11:37:55;4.32;;;2.97;;
32790;SDS011;19143;59.322;14.502;2023-06-26T11:40:25;3.50;;;3.20;;
32790;SDS011;19143;59.322;14.502;2023-06-26T11:42:52;3.53;;;2.97;;
32790;SDS011;19143;59.322;14.502;2023-06-26T11:45:20;6.30;;;3.03;;
32790;SDS011;19143;59.322;14.502;2023-06-26T11:47:47;4.65;;;3.30;;
32790;SDS011;19143;59.322;14.502;2023-06-26T11:50:16;5.13;;;3.10;;
32790;SDS011;19143;59.322;14.502;2023-06-26T11:52:43;3.50;;;3.30;;
32790;SDS011;19143;59.322;14.502;2023-06-26T11:55:09;3.90;;;3.58;;
32790;SDS011;19143;59.322;14.502;2023-06-26T11:57:36;3.40;;;3.20;;
32790;SDS011;19143;59.322;14.502;2023-06-26T12:00:13;3.50;;;3.30;;
32790;SDS011;19143;59.322;14.502;2023-06-26T12:02:42;3.30;;;3.10;;
32790;SDS011;19143;59.322;14.502;2023-06-26T12:05:08;3.20;;;3.00;;
32790;SDS011;19143;59.322;14.502;2023-06-26T12:07:36;2.88;;;2.78;;
32790;SDS011;19143;59.322;14.502;2023-06-26T12:10:04;3.38;;;3.08;;
32790;SDS011;19143;59.322;14.502;2023-06-26T12:12:31;3.45;;;3.05;;
32790;SDS011;19143;59.322;14.502;2023-06-26T12:14:58;2.97;;;2.83;;
32790;SDS011;19143;59.322;14.502;2023-06-26T12:17:25;3.55;;;3.15;;
32790;SDS011;19143;59.322;14.502;2023-06-26T12:19:53;4.47;;;2.95;;
32790;SDS011;19143;59.322;14.502;2023-06-26T12:22:20;3.25;;;2.70;;
32790;SDS011;19143;59.322;14.502;2023-06-26T12:24:47;2.90;;;2.70;;
32790;SDS011;19143;59.322;14.502;2023-06-26T12:27:14;3.30;;;3.10;;
32790;SDS011;19143;59.322;14.502;2023-06-26T12:29:45;3.80;;;3.47;;
32790;SDS011;19143;59.322;14.502;2023-06-26T12:32:13;6.93;;;2.95;;
32790;SDS011;19143;59.322;14.502;2023-06-26T12:34:41;3.05;;;2.85;;
32790;SDS011;19143;59.322;14.502;2023-06-26T12:37:10;3.50;;;2.78;;
32790;SDS011;19143;59.322;14.502;2023-06-26T12:39:45;6.70;;;2.90;;
32790;SDS011;19143;59.322;14.502;2023-06-26T12:42:13;5.55;;;3.00;;
32790;SDS011;19143;59.322;14.502;2023-06-26T12:44:40;3.30;;;3.00;;
32790;SDS011;19143;59.322;14.502;2023-06-26T12:47:06;3.85;;;2.80;;
32790;SDS011;19143;59.322;14.502;2023-06-26T12:49:33;2.83;;;2.70;;
32790;SDS011;19143;59.322;14.502;2023-06-26T12:52:01;2.75;;;2.65;;
32790;SDS011;19143;59.322;14.502;2023-06-26T12:54:30;5.05;;;3.00;;
32790;SDS011;19143;59.322;14.502;2023-06-26T12:56:57;7.88;;;2.95;;
32790;SDS011;19143;59.322;14.502;2023-06-26T12:59:23;7.13;;;2.55;;
32790;SDS011;19143;59.322;14.502;2023-06-26T13:01:50;3.15;;;2.95;;
32790;SDS011;19143;59.322;14.502;2023-06-26T13:04:16;2.97;;;2.78;;
32790;SDS011;19143;59.322;14.502;2023-06-26T13:06:43;3.42;;;2.60;;
32790;SDS011;19143;59.322;14.502;2023-06-26T13:09:10;4.28;;;2.78;;
32790;SDS011;19143;59.322;14.502;2023-06-26T13:11:38;3.40;;;2.90;;
32790;SDS011;19143;59.322;14.502;2023-06-26T13:14:05;5.18;;;2.80;;
32790;SDS011;19143;59.322;14.502;2023-06-26T13:16:32;2.90;;;2.75;;
32790;SDS011;19143;59.322;14.502;2023-06-26T13:18:58;2.75;;;2.65;;
32790;SDS011;19143;59.322;14.502;2023-06-26T13:21:25;2.85;;;2.75;;
32790;SDS011;19143;59.322;14.502;2023-06-26T13:23:52;2.83;;;2.70;;
32790;SDS011;19143;59.322;14.502;2023-06-26T13:26:20;2.80;;;2.70;;
32790;SDS011;19143;59.322;14.502;2023-06-26T13:28:52;6.22;;;2.80;;
32790;SDS011;19143;59.322;14.502;2023-06-26T13:31:18;3.00;;;2.90;;
32790;SDS011;19143;59.322;14.502;2023-06-26T13:33:46;8.35;;;3.22;;
32790;SDS011;19143;59.322;14.502;2023-06-26T13:36:16;3.40;;;3.20;;
32790;SDS011;19143;59.322;14.502;2023-06-26T13:38:46;3.53;;;3.33;;
32790;SDS011;19143;59.322;14.502;2023-06-26T13:41:14;3.65;;;2.80;;
32790;SDS011;19143;59.322;14.502;2023-06-26T13:43:42;11.00;;;3.15;;
32790;SDS011;19143;59.322;14.502;2023-06-26T13:46:11;6.57;;;3.05;;
32790;SDS011;19143;59.322;14.502;2023-06-26T13:48:38;4.28;;;3.50;;
32790;SDS011;19143;59.322;14.502;2023-06-26T13:51:05;3.03;;;2.83;;
32790;SDS011;19143;59.322;14.502;2023-06-26T13:53:41;3.07;;;2.97;;
32790;SDS011;19143;59.322;14.502;2023-06-26T13:56:13;3.10;;;2.90;;
32790;SDS011;19143;59.322;14.502;2023-06-26T13:58:43;2.87;;;2.77;;
32790;SDS011;19143;59.322;14.502;2023-06-26T14:01:12;2.90;;;2.70;;
32790;SDS011;19143;59.322;14.502;2023-06-26T14:03:39;2.90;;;2.80;;
32790;SDS011;19143;59.322;14.502;2023-06-26T14:06:05;3.22;;;3.08;;
32790;SDS011;19143;59.322;14.502;2023-06-26T14:08:38;5.07;;;2.77;;
32790;SDS011;19143;59.322;14.502;2023-06-26T14:11:05;3.05;;;2.83;;
32790;SDS011;19143;59.322;14.502;2023-06-26T14:13:32;3.83;;;3.43;;
32790;SDS011;19143;59.322;14.502;2023-06-26T14:16:06;3.47;;;3.20;;
32790;SDS011;19143;59.322;14.502;2023-06-26T14:18:39;8.97;;;3.43;;
32790;SDS011;19143;59.322;14.502;2023-06-26T14:21:07;5.57;;;3.10;;
32790;SDS011;19143;59.322;14.502;2023-06-26T14:23:37;3.05;;;2.85;;
32790;SDS011;19143;59.322;14.502;2023-06-26T14:26:04;8.80;;;3.37;;
32790;SDS011;19143;59.322;14.502;2023-06-26T14:28:30;6.53;;;3.37;;
32790;SDS011;19143;59.322;14.502;2023-06-26T14:30:57;4.60;;;3.23;;
32790;SDS011;19143;59.322;14.502;2023-06-26T14:33:23;3.92;;;3.60;;
32790;SDS011;19143;59.322;14.502;2023-06-26T14:35:52;2.97;;;2.83;;